Time;durP1;ratioP1;P1;durP2;ratioP2;P2;SDS_P1;SDS_P2;PMS_P1;PMS_P2;Temp;Humidity;BMP_temperature;BMP_pressure;BME280_temperature;BME280_humidity;BME280_pressure;Samples;Min_cycle;Max_cycle;Signal;HPM_P1;HPM_P2
2023/05/21 00:00:34;;;;;;;8.10;7.30;;;14.90;97.90;;;14.52;71.29;101287.00;5015022;28;20639;-71
2023/05/21 00:03:12;;;;;;;8.10;7.40;;;14.80;97.90;;;14.50;71.34;101289.03;5015360;28;20192;-71
2023/05/21 00:05:48;;;;;;;7.70;7.00;;;14.80;98.00;;;14.50;71.49;101278.25;5015308;28;20215;-72
2023/05/21 00:08:22;;;;;;;8.60;6.90;;;14.80;98.00;;;14.45;71.62;101275.22;5015852;28;20209;-71
2023/05/21 00:10:56;;;;;;;8.93;7.60;;;14.80;98.30;;;14.40;71.91;101288.38;5014871;28;20670;-71
2023/05/21 00:13:29;;;;;;;8.07;7.27;;;14.70;98.40;;;14.31;72.08;101284.00;5015131;28;20215;-71
2023/05/21 00:16:03;;;;;;;8.83;6.83;;;14.60;98.40;;;14.40;71.71;101271.38;5015091;28;20282;-71
2023/05/21 00:18:38;;;;;;;7.43;6.77;;;14.70;98.10;;;14.40;71.74;101274.06;5014827;28;20712;-71
2023/05/21 00:21:12;;;;;;;7.67;6.93;;;14.70;98.20;;;14.38;70.98;101274.25;5014651;28;20317;-71
2023/05/21 00:23:47;;;;;;;8.67;7.70;;;14.70;98.00;;;14.34;71.92;101264.84;5014695;28;20703;-71
2023/05/21 00:26:20;;;;;;;9.03;7.37;;;14.60;98.40;;;14.31;72.11;101257.06;5014913;28;20191;-71
2023/05/21 00:28:53;;;;;;;7.70;7.00;;;14.60;98.50;;;14.29;72.14;101264.47;5014921;28;20265;-71
2023/05/21 00:31:27;;;;;;;7.63;6.87;;;14.60;98.50;;;14.28;71.89;101249.31;5014815;28;20234;-71
2023/05/21 00:34:00;;;;;;;9.13;7.80;;;14.70;98.20;;;14.24;73.14;101256.06;5014453;28;20231;-71
2023/05/21 00:36:33;;;;;;;7.93;7.00;;;14.50;98.70;;;14.24;71.96;101253.38;5014453;28;20278;-71
2023/05/21 00:39:07;;;;;;;8.20;7.27;;;14.50;98.40;;;14.24;72.19;101248.00;5014742;28;20291;-71
2023/05/21 00:41:41;;;;;;;8.43;7.57;;;14.60;98.50;;;14.18;72.69;101245.97;5014265;28;20712;-71
2023/05/21 00:44:17;;;;;;;8.10;6.90;;;14.50;98.80;;;14.24;72.40;101248.00;5014632;28;20182;-71
2023/05/21 00:46:52;;;;;;;8.33;6.67;;;14.50;98.60;;;14.21;72.13;101245.63;5014549;28;20198;-71
2023/05/21 00:49:26;;;;;;;9.23;7.00;;;14.50;98.70;;;14.19;72.48;101240.41;5014525;28;20191;-71
2023/05/21 00:52:01;;;;;;;8.77;6.57;;;14.50;98.70;;;14.22;72.57;101236.53;5014390;28;20227;-71
2023/05/21 00:54:35;;;;;;;7.20;6.33;;;14.50;98.70;;;14.23;72.18;101236.38;5014433;28;20211;-71
2023/05/21 00:57:09;;;;;;;8.47;7.40;;;14.60;98.70;;;14.18;73.08;101235.19;5014413;28;20219;-71
2023/05/21 00:59:43;;;;;;;8.70;6.80;;;14.50;98.90;;;14.18;71.77;101229.81;5014346;28;20199;-71
2023/05/21 01:02:17;;;;;;;7.13;6.43;;;14.50;98.70;;;14.06;72.45;101228.50;5014221;28;20265;-71
2023/05/21 01:04:51;;;;;;;9.70;7.03;;;14.30;98.90;;;14.06;72.94;101228.50;5013991;28;20187;-71
2023/05/21 01:07:24;;;;;;;7.60;6.90;;;14.30;99.10;;;13.99;73.63;101224.81;5014099;28;20274;-71
2023/05/21 01:09:57;;;;;;;9.30;6.87;;;14.30;99.30;;;13.98;73.04;101229.34;5014225;28;20200;-71
2023/05/21 01:12:32;;;;;;;9.80;6.87;;;14.20;99.20;;;13.95;74.01;101223.44;5014207;28;20271;-71
2023/05/21 01:15:09;;;;;;;8.50;7.03;;;14.30;99.40;;;13.87;74.46;101220.78;5014080;28;20249;-71
2023/05/21 01:17:44;;;;;;;9.03;7.37;;;14.20;99.70;;;13.79;74.41;101218.94;5014086;28;20239;-71
2023/05/21 01:20:20;;;;;;;8.00;7.20;;;14.10;99.70;;;13.75;75.37;101224.81;5013995;28;20195;-71
2023/05/21 01:22:57;;;;;;;7.50;6.30;;;14.10;99.90;;;13.87;73.40;101220.78;5013991;28;20242;-71
2023/05/21 01:25:30;;;;;;;8.23;7.43;;;14.20;99.60;;;13.87;73.95;101223.47;5013730;28;20222;-71
2023/05/21 01:28:04;;;;;;;7.87;7.10;;;14.20;99.70;;;13.86;74.02;101219.94;5013636;28;20708;-71
2023/05/21 01:30:39;;;;;;;8.70;6.97;;;14.20;99.80;;;13.87;74.57;101224.31;5013859;28;20231;-71
2023/05/21 01:33:25;;;;;;;10.37;7.17;;;14.20;99.70;;;13.77;74.54;101222.81;5013650;28;20221;-71
2023/05/21 01:36:14;;;;;;;8.57;7.30;;;14.10;99.90;;;13.71;74.49;101219.78;5013844;28;20275;-71
2023/05/21 01:38:57;;;;;;;7.30;6.60;;;14.00;99.90;;;13.70;74.88;101214.56;5013921;28;20195;-71
2023/05/21 01:41:38;;;;;;;9.80;6.80;;;14.00;99.90;;;13.67;75.17;101214.91;5013777;28;20654;-71
2023/05/21 01:44:17;;;;;;;13.33;6.83;;;14.00;99.90;;;13.66;74.60;101207.84;5013822;28;20198;-71
2023/05/21 01:46:51;;;;;;;8.90;7.03;;;14.00;99.90;;;13.65;74.62;101215.09;5013769;28;20227;-71
2023/05/21 01:49:25;;;;;;;8.90;7.20;;;14.00;99.90;;;13.51;75.77;101215.75;5013752;28;20194;-71
2023/05/21 01:52:01;;;;;;;7.20;6.60;;;13.80;99.90;;;13.48;74.95;101205.34;5013320;28;20797;-71
2023/05/21 01:54:34;;;;;;;8.93;6.93;;;13.80;99.90;;;13.54;74.85;101210.03;5013291;28;20556;-71
2023/05/21 01:57:07;;;;;;;9.07;6.63;;;13.90;99.90;;;13.55;74.99;101203.66;5013391;28;20750;-71
2023/05/21 01:59:43;;;;;;;7.40;6.60;;;13.90;99.90;;;13.55;74.51;101203.66;5013680;28;20274;-71
2023/05/21 02:02:16;;;;;;;7.97;6.93;;;13.90;99.90;;;13.53;74.35;101202.97;5013555;28;20230;-71
2023/05/21 02:04:50;;;;;;;7.50;6.17;;;13.90;99.90;;;13.43;74.54;101202.28;5013608;28;20199;-71
2023/05/21 02:07:23;;;;;;;7.53;6.30;;;13.80;99.90;;;13.45;75.31;101204.81;5013567;28;20219;-71
2023/05/21 02:09:56;;;;;;;8.33;6.50;;;13.80;99.90;;;13.47;75.17;101216.25;5013609;28;20199;-71
2023/05/21 02:12:29;;;;;;;7.83;6.13;;;13.80;99.90;;;13.47;75.32;101211.72;5013216;28;20649;-71
2023/05/21 02:15:03;;;;;;;8.23;6.50;;;13.80;99.90;;;13.34;76.00;101210.53;5013457;28;20255;-71
2023/05/21 02:17:37;;;;;;;10.27;6.70;;;13.70;99.90;;;13.29;75.88;101208.31;5013496;28;20227;-71
2023/05/21 02:20:14;;;;;;;7.53;6.60;;;13.70;99.90;;;13.34;75.89;101208.69;5015910;28;20202;-71
2023/05/21 02:22:49;;;;;;;6.53;5.80;;;13.70;99.90;;;13.41;74.42;101204.31;5017251;28;20282;-71
2023/05/21 02:25:23;;;;;;;7.57;6.30;;;13.80;99.90;;;13.38;74.37;101204.66;5017230;28;20202;-71
2023/05/21 02:27:56;;;;;;;8.23;6.80;;;13.70;99.90;;;13.35;75.05;101206.84;5016878;28;20566;-71
2023/05/21 02:30:29;;;;;;;10.07;6.60;;;13.70;99.90;;;13.37;74.11;101202.97;5016795;28;20580;-71
2023/05/21 02:33:03;;;;;;;9.30;6.30;;;13.70;99.90;;;13.31;74.92;101203.63;5016659;28;20655;-71
2023/05/21 02:35:36;;;;;;;7.73;6.53;;;13.60;99.90;;;13.27;75.36;101207.66;5016679;28;20219;-71
2023/05/21 02:38:12;;;;;;;7.17;6.33;;;13.60;99.90;;;13.23;75.45;101203.63;5016996;28;20219;-71
2023/05/21 02:40:45;;;;;;;6.50;5.90;;;13.60;99.90;;;13.28;75.29;101200.44;5016896;28;20231;-71
2023/05/21 02:43:19;;;;;;;6.67;6.00;;;13.60;99.90;;;13.30;74.50;101206.47;5016593;28;20629;-71
2023/05/21 02:45:52;;;;;;;7.60;6.53;;;13.70;99.90;;;13.27;74.96;101207.66;5016931;28;20188;-71
2023/05/21 02:48:25;;;;;;;7.73;6.40;;;13.70;99.90;;;13.22;74.96;101199.25;5016491;28;20192;-71
2023/05/21 02:51:00;;;;;;;6.73;6.13;;;13.60;99.90;;;13.15;75.12;101199.06;5016723;28;20258;-71
2023/05/21 02:53:33;;;;;;;8.83;6.13;;;13.50;99.90;;;13.18;74.58;101193.34;5016656;28;20279;-71
2023/05/21 02:56:07;;;;;;;9.90;5.90;;;13.50;99.90;;;13.04;75.95;101190.47;5016295;28;20559;-71
2023/05/21 02:58:41;;;;;;;7.37;6.30;;;13.40;99.90;;;13.02;75.37;101192.44;5016636;28;20278;-71
2023/05/21 03:01:15;;;;;;;8.33;5.97;;;13.40;99.90;;;13.04;74.66;101185.09;5017070;28;20282;-71
2023/05/21 03:03:49;;;;;;;7.83;5.90;;;13.40;99.90;;;13.02;75.12;101187.09;5016452;28;20198;-71
2023/05/21 03:06:23;;;;;;;6.50;5.83;;;13.40;99.90;;;13.01;75.70;101191.59;5016494;28;20191;-71
2023/05/21 03:08:56;;;;;;;9.53;5.90;;;13.40;99.90;;;12.94;76.06;101185.25;5016424;28;20570;-71
2023/05/21 03:11:30;;;;;;;6.97;5.70;;;13.30;99.90;;;12.98;75.00;101186.56;5016319;28;20234;-71
2023/05/21 03:14:03;;;;;;;7.70;5.53;;;13.40;99.90;;;13.02;75.25;101187.09;5016059;28;20663;-71
2023/05/21 03:16:36;;;;;;;6.33;5.73;;;13.40;99.90;;;12.97;75.39;101186.75;5016158;28;20218;-71
2023/05/21 03:19:11;;;;;;;6.27;5.50;;;13.40;99.90;;;12.94;75.55;101179.03;5016249;28;20246;-71
2023/05/21 03:21:44;;;;;;;9.50;5.40;;;13.30;99.90;;;12.97;75.53;101179.53;5016120;28;20231;-71
2023/05/21 03:24:18;;;;;;;8.00;5.53;;;13.30;99.90;;;12.91;75.42;101187.41;5016176;28;20196;-71
2023/05/21 03:26:51;;;;;;;6.20;5.60;;;13.30;99.90;;;12.91;75.34;101184.72;5016095;28;20192;-71
2023/05/21 03:29:24;;;;;;;7.53;5.70;;;13.20;99.90;;;12.89;74.92;101175.97;5016105;28;20227;-71
2023/05/21 03:31:58;;;;;;;7.73;5.70;;;13.20;99.90;;;12.87;75.27;101178.84;5014284;28;20658;-71
2023/05/21 03:34:33;;;;;;;6.70;5.90;;;13.20;99.90;;;12.85;75.43;101170.09;5015510;28;20250;-71
2023/05/21 03:37:06;;;;;;;8.40;6.10;;;13.20;99.90;;;12.90;75.51;101167.75;5015907;28;20191;-71
2023/05/21 03:39:40;;;;;;;8.80;5.73;;;13.30;99.90;;;12.94;75.50;101177.19;5015909;28;20287;-71
2023/05/21 03:42:13;;;;;;;6.33;5.57;;;13.30;99.90;;;12.98;74.75;101175.00;5016102;28;20227;-71
2023/05/21 03:44:46;;;;;;;7.07;5.33;;;13.40;99.90;;;12.96;74.52;101171.63;5015887;28;20234;-71
2023/05/21 03:47:20;;;;;;;6.00;5.33;;;13.30;99.90;;;12.93;74.19;101171.94;5015695;28;20196;-71
2023/05/21 03:49:53;;;;;;;10.20;6.13;;;13.30;99.90;;;12.91;75.02;101168.59;5015992;28;20211;-71
2023/05/21 03:52:27;;;;;;;7.93;6.00;;;13.20;99.90;;;12.94;74.74;101173.66;5015634;28;20259;-71
2023/05/21 03:55:00;;;;;;;6.30;5.70;;;13.30;99.90;;;12.89;75.16;101170.59;5015555;28;20218;-71
2023/05/21 03:57:33;;;;;;;7.03;5.40;;;13.20;99.90;;;12.82;75.77;101177.63;5015546;28;20261;-71
2023/05/21 04:00:09;;;;;;;7.90;5.90;;;13.20;99.90;;;12.79;76.34;101177.97;5015412;28;20330;-71
2023/05/21 04:02:43;;;;;;;6.70;6.00;;;13.10;99.90;;;12.79;76.00;101181.50;5015344;28;20195;-71
2023/05/21 04:05:16;;;;;;;6.90;6.20;;;13.20;99.90;;;12.81;76.08;101186.72;5015354;28;20274;-71
2023/05/21 04:07:50;;;;;;;9.57;6.30;;;13.20;99.90;;;12.77;76.89;101188.03;5015327;28;20202;-71
2023/05/21 04:10:23;;;;;;;7.60;6.20;;;13.10;99.90;;;12.78;76.94;101178.97;5015231;28;20237;-71
2023/05/21 04:12:57;;;;;;;6.50;5.47;;;13.10;99.90;;;12.77;76.04;101191.56;5015194;28;20595;-71
2023/05/21 04:15:30;;;;;;;7.97;5.97;;;13.20;99.90;;;12.70;77.21;101183.31;5015116;28;20306;-71
2023/05/21 04:18:03;;;;;;;8.10;6.20;;;13.10;99.90;;;12.75;76.38;101181.97;5015145;28;20214;-71
2023/05/21 04:20:37;;;;;;;7.10;5.50;;;13.10;99.90;;;12.70;77.17;101188.66;5014694;28;20602;-71
2023/05/21 04:23:10;;;;;;;8.47;6.67;;;13.20;99.90;;;12.66;77.45;101187.34;5015036;28;20282;-71
2023/05/21 04:25:44;;;;;;;9.70;6.93;;;13.10;99.90;;;12.63;77.69;101182.31;5015022;28;20191;-71
2023/05/21 04:28:18;;;;;;;7.00;6.30;;;13.00;99.90;;;12.63;78.22;101178.78;5014662;28;20640;-71
2023/05/21 04:30:52;;;;;;;8.47;6.50;;;13.00;99.90;;;12.60;78.05;101182.59;5014857;28;20231;-71
2023/05/21 04:33:25;;;;;;;7.10;6.27;;;13.00;99.90;;;12.56;78.79;101186.63;5014597;28;20223;-71
2023/05/21 04:35:59;;;;;;;7.10;5.90;;;13.00;99.90;;;12.59;78.18;101186.31;5014782;28;20295;-71
2023/05/21 04:38:33;;;;;;;8.07;5.90;;;13.00;99.90;;;12.62;77.59;101188.66;5014463;28;20642;-71
2023/05/21 04:41:09;;;;;;;9.20;6.57;;;13.10;99.90;;;12.62;78.30;101188.66;5014325;28;20594;-71
2023/05/21 04:43:43;;;;;;;7.43;6.27;;;13.00;99.90;;;12.64;77.73;101183.13;5013944;28;20558;-71
2023/05/21 04:46:17;;;;;;;10.23;7.00;;;13.10;99.90;;;12.66;78.65;101191.88;5014242;28;20558;-71
2023/05/21 04:48:51;;;;;;;8.33;6.20;;;13.10;99.90;;;12.67;78.33;101183.63;5014437;28;20196;-71
2023/05/21 04:51:26;;;;;;;9.70;6.80;;;13.10;99.90;;;12.68;78.63;101184.47;5014124;28;20601;-71
2023/05/21 04:53:59;;;;;;;11.23;7.27;;;13.10;99.90;;;12.62;78.89;101185.97;5014423;28;20187;-71
2023/05/21 04:56:32;;;;;;;10.83;7.50;;;13.10;99.90;;;12.65;79.64;101192.88;5014419;28;20216;-71
2023/05/21 04:59:06;;;;;;;11.13;7.50;;;13.10;99.90;;;12.66;79.44;101195.41;5014341;28;20279;-71
2023/05/21 05:01:40;;;;;;;9.37;7.50;;;13.10;99.90;;;12.66;80.03;101184.66;5014303;28;20322;-71
2023/05/21 05:04:13;;;;;;;11.10;7.60;;;13.10;99.90;;;12.69;79.60;101191.53;5014010;28;20283;-71
2023/05/21 05:06:46;;;;;;;8.37;7.57;;;13.10;99.90;;;12.73;80.32;101194.75;5013962;28;20219;-71
2023/05/21 05:09:23;;;;;;;10.30;8.37;;;13.20;99.90;;;12.76;79.67;101181.81;5014248;28;20282;-71
2023/05/21 05:11:57;;;;;;;9.30;8.30;;;13.20;99.90;;;12.78;79.71;101177.13;5014129;28;20262;-71
2023/05/21 05:14:30;;;;;;;12.27;8.00;;;13.30;99.90;;;12.82;79.88;101180.31;5013825;28;20645;-71
2023/05/21 05:17:03;;;;;;;10.60;8.77;;;13.30;99.90;;;12.87;80.48;101180.69;5014116;28;20218;-71
2023/05/21 05:19:37;;;;;;;12.37;8.87;;;13.40;99.90;;;12.85;79.42;101169.25;5014103;28;20217;-71
2023/05/21 05:22:11;;;;;;;12.43;9.13;;;13.40;99.90;;;12.89;79.76;101184.03;5015030;28;20314;-71
2023/05/21 05:24:46;;;;;;;13.27;9.97;;;13.40;99.90;;;12.89;79.80;101181.34;5013984;28;20199;-71
2023/05/21 05:27:19;;;;;;;12.67;9.57;;;13.40;99.90;;;12.94;80.10;101184.41;5013699;28;20712;-71
2023/05/21 05:29:52;;;;;;;10.37;9.27;;;13.40;99.90;;;12.89;80.32;101178.66;5013980;28;20204;-71
2023/05/21 05:32:25;;;;;;;11.07;9.33;;;13.40;99.90;;;12.93;79.44;101172.81;5013444;28;20754;-71
2023/05/21 05:34:59;;;;;;;15.50;9.93;;;13.40;99.90;;;12.98;80.44;101177.69;5013908;28;20196;-71
2023/05/21 05:37:35;;;;;;;12.03;9.07;;;13.40;99.90;;;12.99;79.75;101182.03;5013838;28;20239;-71
2023/05/21 05:40:10;;;;;;;12.33;9.83;;;13.50;99.90;;;13.02;79.70;101187.09;5013522;28;20278;-71
2023/05/21 05:42:43;;;;;;;10.30;9.13;;;13.50;99.90;;;13.06;78.97;101183.06;5013781;28;20286;-71
2023/05/21 05:45:17;;;;;;;12.27;10.00;;;13.60;99.90;;;13.12;79.14;101182.44;5013818;28;20188;-71
2023/05/21 05:47:50;;;;;;;12.23;10.47;;;13.60;99.90;;;13.15;79.38;101179.44;5013788;28;20202;-71
2023/05/21 05:50:24;;;;;;;14.00;10.30;;;13.70;99.90;;;13.16;78.89;101178.41;5013754;28;20231;-71
2023/05/21 05:52:57;;;;;;;13.67;10.57;;;13.70;99.90;;;13.18;79.31;101185.28;5013683;28;20290;-71
2023/05/21 05:55:31;;;;;;;12.30;10.07;;;13.70;99.90;;;13.23;80.12;101179.41;5017027;28;20191;-71
2023/05/21 05:58:04;;;;;;;14.10;10.67;;;13.70;99.90;;;13.26;78.94;101184.47;5017691;28;20243;-71
2023/05/21 06:00:37;;;;;;;14.17;11.03;;;13.80;99.90;;;13.32;79.29;101186.47;5017359;28;20233;-71
2023/05/21 06:03:11;;;;;;;13.33;11.00;;;13.90;99.90;;;13.37;79.77;101191.38;5017646;28;20298;-71
2023/05/21 06:05:44;;;;;;;12.57;11.27;;;13.90;99.90;;;13.38;79.18;101183.13;5017347;28;20246;-71
2023/05/21 06:08:18;;;;;;;12.83;10.87;;;13.90;99.90;;;13.46;78.87;101191.19;5017256;28;20200;-71
2023/05/21 06:10:51;;;;;;;14.33;11.47;;;13.90;99.90;;;13.43;79.26;101196.91;5017450;28;20314;-71
2023/05/21 06:13:25;;;;;;;12.77;11.27;;;13.90;99.90;;;13.47;79.99;101181.28;5017454;28;20278;-71
2023/05/21 06:15:58;;;;;;;14.63;11.53;;;14.00;99.90;;;13.46;79.53;101185.81;5017398;28;20282;-71
2023/05/21 06:18:31;;;;;;;15.43;12.53;;;14.00;99.90;;;13.51;79.84;101174.56;5017064;28;20662;-71
2023/05/21 06:21:05;;;;;;;17.17;12.80;;;14.00;99.90;;;13.55;79.77;101178.59;5016996;28;20266;-71
2023/05/21 06:23:38;;;;;;;15.27;13.20;;;14.00;99.90;;;13.56;79.59;101183.78;5017246;28;20223;-71
2023/05/21 06:26:12;;;;;;;14.47;11.70;;;14.10;99.90;;;13.61;79.52;101178.75;5016933;28;20198;-71
2023/05/21 06:28:45;;;;;;;17.27;13.17;;;14.10;99.90;;;13.68;79.90;101182.44;5016877;28;20282;-72
2023/05/21 06:31:21;;;;;;;16.10;13.13;;;14.20;99.90;;;13.75;79.75;101184.47;5017076;28;20227;-72
2023/05/21 06:33:54;;;;;;;18.13;13.50;;;14.30;99.90;;;13.81;79.56;101184.63;5016720;28;20294;-72
2023/05/21 06:36:31;;;;;;;15.97;12.70;;;14.30;99.90;;;13.91;79.84;101179.88;5016971;28;20220;-72
2023/05/21 06:39:05;;;;;;;17.20;13.70;;;14.40;99.90;;;13.98;79.50;101180.03;5017003;28;20191;-72
2023/05/21 06:41:39;;;;;;;14.80;12.73;;;14.50;99.90;;;14.05;79.40;101181.03;5016892;28;20258;-72
2023/05/21 06:44:14;;;;;;;15.50;13.20;;;14.60;99.90;;;14.14;79.38;101180.84;5016888;28;20274;-72
2023/05/21 06:46:47;;;;;;;17.13;14.57;;;14.70;99.90;;;14.25;79.33;101178.81;5016516;28;20223;-72
2023/05/21 06:49:21;;;;;;;17.20;14.13;;;14.80;99.90;;;14.33;78.94;101179.59;5016765;28;20202;-72
2023/05/21 06:51:54;;;;;;;20.30;15.13;;;14.80;99.90;;;14.43;78.44;101179.44;5016724;28;20258;-72
2023/05/21 06:54:27;;;;;;;19.07;16.93;;;15.00;99.90;;;14.50;78.64;101181.25;5016663;28;20198;-72
2023/05/21 06:57:01;;;;;;;16.47;14.77;;;15.00;99.90;;;14.54;78.36;101181.75;5016290;28;20207;-72
2023/05/21 06:59:34;;;;;;;18.20;15.97;;;15.10;99.90;;;14.62;78.32;101182.53;5016615;28;20286;-72
2023/05/21 07:02:08;;;;;;;18.20;16.30;;;15.10;99.90;;;14.69;78.26;101175.44;5016523;28;20262;-72
2023/05/21 07:04:42;;;;;;;19.90;17.67;;;15.20;99.90;;;14.76;78.06;101177.44;5016185;28;20195;-72
2023/05/21 07:07:15;;;;;;;18.97;16.27;;;15.30;99.90;;;14.82;77.54;101179.41;5016553;28;20196;-64
2023/05/21 07:09:48;;;;;;;18.33;16.43;;;15.30;99.90;;;14.87;77.84;101179.72;5016386;28;20192;-73
2023/05/21 07:12:22;;;;;;;19.20;17.20;;;15.40;99.90;;;14.95;77.76;101175.13;5016330;28;20227;-73
2023/05/21 07:14:55;;;;;;;21.93;18.10;;;15.40;99.90;;;14.99;77.54;101178.31;5016011;28;20650;-73
2023/05/21 07:17:31;;;;;;;18.83;16.10;;;15.50;99.90;;;15.04;78.06;101173.19;5016230;28;20251;-73
2023/05/21 07:20:06;;;;;;;20.03;17.43;;;15.50;99.90;;;15.10;77.47;101167.13;5016133;28;20250;-74
2023/05/21 07:22:41;;;;;;;19.20;17.20;;;15.60;99.90;;;15.10;77.46;101167.13;5016167;28;20261;-74
2023/05/21 07:25:15;;;;;;;20.77;16.70;;;15.60;99.90;;;15.14;76.90;101166.56;5015793;28;20558;-74
2023/05/21 07:27:48;;;;;;;17.63;15.80;;;15.60;99.90;;;15.21;77.12;101158.59;5015609;28;20560;-73
2023/05/21 07:30:22;;;;;;;20.67;18.47;;;15.70;99.90;;;15.28;77.07;101153.31;5015573;28;20288;-73
2023/05/21 07:32:55;;;;;;;20.07;17.97;;;15.80;99.90;;;15.31;76.89;101159.19;5015714;28;20222;-73
2023/05/21 07:35:28;;;;;;;21.30;18.13;;;15.90;99.90;;;15.37;76.90;101161.19;5015899;28;20196;-73
2023/05/21 07:38:02;;;;;;;22.63;18.83;;;15.90;99.90;;;15.45;77.01;101153.00;5015844;28;20250;-73
2023/05/21 07:40:36;;;;;;;21.57;18.60;;;16.00;99.90;;;15.52;76.34;101155.84;5015509;28;20235;-73
2023/05/21 07:43:09;;;;;;;18.10;16.17;;;16.00;99.90;;;15.59;76.64;101162.19;5015810;28;20279;-73
2023/05/21 07:45:43;;;;;;;23.20;19.67;;;16.10;99.90;;;15.66;76.61;101160.44;5015805;28;20592;-73
2023/05/21 07:48:16;;;;;;;23.27;18.43;;;16.20;99.90;;;15.76;76.16;101169.09;5015705;28;20215;-73
2023/05/21 07:50:51;;;;;;;22.50;19.50;;;16.30;99.90;;;15.83;76.38;101167.34;5015553;28;20282;-73
2023/05/21 07:53:24;;;;;;;21.10;18.10;;;16.30;99.90;;;15.86;76.58;101174.22;5015611;28;20246;-73
2023/05/21 07:55:59;;;;;;;21.47;19.23;;;16.40;99.90;;;15.96;75.66;101166.72;5015320;28;20647;-72
2023/05/21 07:58:33;;;;;;;24.70;20.10;;;16.50;99.90;;;16.11;76.20;101164.88;5015136;28;20679;-72
2023/05/21 08:01:07;;;;;;;22.23;19.83;;;16.60;99.90;;;16.17;76.29;101164.97;5015405;28;20234;-73
2023/05/21 08:03:40;;;;;;;23.50;20.60;;;16.70;99.90;;;16.30;74.24;101156.19;5015072;28;20283;-72
2023/05/21 08:06:14;;;;;;;22.87;20.43;;;16.80;99.90;;;16.42;74.17;101165.50;5015428;28;20201;-72
2023/05/21 08:08:47;;;;;;;22.43;20.13;;;16.90;99.90;;;16.49;74.22;101160.19;5014991;28;20282;-72
2023/05/21 08:11:22;;;;;;;23.33;18.90;;;17.00;99.80;;;16.59;73.90;101161.59;5014899;28;20670;-73
2023/05/21 08:13:55;;;;;;;22.03;19.67;;;17.00;99.70;;;16.66;72.83;101154.41;5015232;28;20283;-72
2023/05/21 08:16:29;;;;;;;21.80;19.47;;;17.10;99.60;;;16.70;72.73;101152.16;5014634;28;20192;-72
2023/05/21 08:19:02;;;;;;;23.40;20.90;;;17.20;99.40;;;16.81;72.76;101153.53;5014695;28;20611;-73
2023/05/21 08:21:36;;;;;;;22.63;19.50;;;17.30;99.10;;;16.85;73.45;101155.66;5015732;28;20277;-73
2023/05/21 08:24:09;;;;;;;24.10;19.77;;;17.40;99.40;;;16.97;72.04;101147.88;5015012;28;20562;-73
2023/05/21 08:26:43;;;;;;;22.53;19.77;;;17.50;99.20;;;17.03;72.48;101157.94;5014984;28;20219;-73
2023/05/21 08:29:17;;;;;;;21.57;19.33;;;17.50;99.30;;;17.10;71.86;101153.44;5014951;28;20215;-73
2023/05/21 08:31:50;;;;;;;21.70;19.37;;;17.60;99.10;;;17.19;72.43;101163.13;5014857;28;20238;-73
2023/05/21 08:34:23;;;;;;;22.27;19.97;;;17.70;99.10;;;17.23;70.84;101167.09;5014470;28;20214;-73
2023/05/21 08:36:56;;;;;;;22.10;19.70;;;17.70;98.20;;;17.27;71.09;101160.25;5014825;28;20216;-73
2023/05/21 08:39:30;;;;;;;22.43;20.13;;;17.70;98.60;;;17.39;70.71;101153.31;5014729;28;20304;-73
2023/05/21 08:42:17;;;;;;;23.60;19.90;;;17.80;98.40;;;17.41;71.05;101156.66;5014725;28;20305;-73
2023/05/21 08:45:11;;;;;;;22.77;18.73;;;17.90;98.30;;;17.49;70.70;101152.97;5014677;28;20247;-73
2023/05/21 08:47:46;;;;;;;22.20;19.83;;;17.90;98.30;;;17.58;70.94;101151.81;5014327;28;20688;-73
2023/05/21 08:50:21;;;;;;;21.93;19.63;;;18.00;98.20;;;17.64;69.68;101157.28;5014510;28;20191;-73
2023/05/21 08:52:57;;;;;;;23.83;19.43;;;18.10;98.00;;;17.69;69.92;101160.25;5014584;28;20273;-73
2023/05/21 08:55:33;;;;;;;22.50;20.17;;;18.20;98.00;;;17.80;70.09;101160.75;5014465;28;20247;-72
2023/05/21 08:58:08;;;;;;;21.57;19.37;;;18.20;97.90;;;17.88;70.05;101152.47;5014409;28;20580;-72
2023/05/21 09:00:42;;;;;;;21.30;18.90;;;18.30;98.00;;;17.92;68.85;101153.75;5014319;28;20317;-73
2023/05/21 09:03:16;;;;;;;23.67;20.00;;;18.30;97.50;;;17.98;68.86;101150.28;5014072;28;20670;-73
2023/05/21 09:05:51;;;;;;;22.27;19.97;;;18.50;97.40;;;18.05;68.94;101151.13;5014397;28;20192;-73
2023/05/21 09:08:35;;;;;;;20.90;18.23;;;18.50;97.60;;;18.10;69.56;101148.66;5014345;28;20278;-73
2023/05/21 09:11:08;;;;;;;21.03;18.80;;;18.50;97.70;;;18.22;68.26;101149.75;5014226;28;20235;-73
2023/05/21 09:13:45;;;;;;;21.30;19.00;;;18.70;97.30;;;18.31;68.53;101154.00;5013913;28;20649;-73
2023/05/21 09:16:19;;;;;;;22.43;20.00;;;18.80;97.20;;;18.36;68.03;101143.38;5014173;28;20278;-72
2023/05/21 09:18:53;;;;;;;20.80;18.67;;;18.80;96.90;;;18.49;67.67;101150.75;5014034;28;20261;-73
2023/05/21 09:21:32;;;;;;;22.43;19.43;;;18.90;97.30;;;18.53;68.31;101144.72;5014144;28;20242;-72
2023/05/21 09:24:06;;;;;;;20.73;18.20;;;19.00;97.30;;;18.60;67.86;101147.47;5014025;28;20192;-72
2023/05/21 09:26:42;;;;;;;20.57;18.37;;;19.00;96.70;;;18.73;67.66;101152.97;5013681;28;20230;-72
2023/05/21 09:29:17;;;;;;;21.90;19.60;;;19.20;96.70;;;18.83;67.47;101152.56;5013902;28;20211;-73
2023/05/21 09:31:53;;;;;;;20.67;18.50;;;19.30;96.70;;;19.03;66.77;101158.88;5013817;28;20273;-73
2023/05/21 09:34:29;;;;;;;20.20;18.13;;;19.40;96.40;;;19.06;66.78;101161.19;5013441;28;20306;-73
2023/05/21 09:37:03;;;;;;;21.20;18.53;;;19.50;96.20;;;19.15;66.29;101151.81;5013880;28;20192;-73
2023/05/21 09:39:46;;;;;;;21.43;19.23;;;19.60;96.10;;;19.19;66.42;101155.78;5013665;28;20212;-73
2023/05/21 09:42:22;;;;;;;20.57;18.37;;;19.60;96.20;;;19.32;66.02;101152.25;5013761;28;20317;-73
2023/05/21 09:44:57;;;;;;;24.07;18.40;;;19.70;95.90;;;19.40;64.29;101150.19;5013424;28;20195;-73
2023/05/21 09:47:31;;;;;;;18.67;16.67;;;19.80;95.20;;;19.46;64.81;101148.53;5013770;28;20237;-73
2023/05/21 09:50:05;;;;;;;17.93;16.13;;;19.90;95.20;;;19.51;65.20;101152.31;5013584;28;20211;-73
2023/05/21 09:52:40;;;;;;;21.07;18.87;;;19.90;95.30;;;19.57;64.58;101162.34;5013821;28;20566;-73
2023/05/21 09:55:21;;;;;;;20.27;17.80;;;19.90;95.10;;;19.64;65.05;101149.59;5013403;28;20632;-73
2023/05/21 09:57:57;;;;;;;20.37;18.30;;;20.00;95.30;;;19.70;64.40;101151.47;5013633;28;20282;-73
2023/05/21 10:00:33;;;;;;;20.67;18.47;;;20.10;95.00;;;19.78;64.00;101150.41;5013277;28;20712;-73
2023/05/21 10:03:15;;;;;;;22.40;18.80;;;20.20;94.90;;;19.83;63.42;101153.31;5013703;28;20195;-72
2023/05/21 10:05:52;;;;;;;20.23;18.23;;;20.20;94.40;;;19.92;63.53;101140.38;5013158;28;20192;-73
2023/05/21 10:08:30;;;;;;;26.63;23.20;;;20.30;94.70;;;19.98;63.90;101147.66;5013751;28;20192;-74
2023/05/21 10:11:05;;;;;;;22.57;20.33;;;20.30;94.70;;;20.06;63.77;101152.88;5013630;28;20640;-73
2023/05/21 10:13:48;;;;;;;21.27;18.83;;;20.40;94.70;;;20.13;63.01;101137.41;5014319;28;20187;-73
2023/05/21 10:16:22;;;;;;;20.30;18.07;;;20.50;94.50;;;20.25;62.87;101135.69;5013650;28;20184;-74
2023/05/21 10:18:57;;;;;;;20.73;18.53;;;20.60;94.20;;;20.41;62.00;101139.84;5013237;28;20212;-74
2023/05/21 10:21:33;;;;;;;20.57;18.50;;;20.80;93.80;;;20.48;61.34;101146.09;5013576;28;20227;-74
2023/05/21 10:24:08;;;;;;;20.03;17.93;;;20.90;93.30;;;20.57;61.55;101137.47;5013531;28;20270;-74
2023/05/21 10:26:44;;;;;;;22.57;20.13;;;21.00;93.50;;;20.74;62.08;101138.66;5013526;28;20278;-74
2023/05/21 10:29:22;;;;;;;20.60;18.40;;;21.10;93.90;;;20.80;63.56;101130.66;5013425;28;20282;-74
2023/05/21 10:31:57;;;;;;;20.20;18.10;;;21.10;94.30;;;20.84;62.08;101140.06;5013078;28;20774;-74
2023/05/21 10:34:32;;;;;;;20.13;18.13;;;21.20;93.50;;;20.94;60.71;101133.09;5013026;28;20313;-74